createdAt,value
2022-09-12T00:02:35.783Z,46.72
2022-09-12T00:07:38.314Z,46.43
2022-09-12T00:12:40.943Z,46.20
2022-09-12T00:17:43.459Z,45.62
2022-09-12T00:22:45.926Z,45.05
2022-09-12T00:27:48.462Z,44.45
2022-09-12T00:32:52.103Z,43.95
2022-09-12T00:37:54.513Z,44.04
2022-09-12T00:42:56.918Z,44.07
2022-09-12T00:48:04.178Z,43.27
2022-09-12T00:53:09.778Z,43.18
2022-09-12T00:58:27.424Z,43.28
2022-09-12T01:03:30.046Z,44.30
2022-09-12T01:08:34.833Z,44.84
2022-09-12T01:13:37.951Z,45.03
2022-09-12T01:18:46.863Z,45.74
2022-09-12T01:24:12.186Z,45.71
2022-09-12T01:29:40.492Z,46.37
2022-09-12T01:34:54.238Z,46.21
2022-09-12T01:40:27.423Z,46.66
2022-09-12T01:45:34.031Z,46.42
2022-09-12T01:50:42.273Z,47.06
2022-09-12T01:56:09.259Z,47.24
2022-09-12T02:01:20.662Z,47.35
2022-09-12T02:06:33.733Z,47.85
2022-09-12T02:11:42.365Z,48.01
2022-09-12T02:16:50.103Z,47.92
2022-09-12T02:21:59.161Z,48.48
2022-09-12T02:27:25.670Z,48.22
2022-09-12T02:32:38.150Z,49.03
2022-09-12T02:38:03.110Z,48.62
2022-09-12T02:43:07.010Z,48.83
2022-09-12T02:48:09.400Z,49.38
2022-09-12T02:53:12.403Z,50.12
2022-09-12T02:58:21.359Z,49.79
2022-09-12T03:03:42.712Z,50.20
2022-09-12T03:09:00.977Z,50.74
2022-09-12T03:14:32.471Z,51.20
2022-09-12T03:19:39.134Z,50.92
2022-09-12T03:25:00.410Z,51.24
2022-09-12T03:30:05.670Z,51.61
2022-09-12T03:35:08.430Z,51.79
2022-09-12T03:40:13.160Z,51.47
2022-09-12T03:45:17.083Z,52.19
2022-09-12T03:50:19.544Z,51.65
2022-09-12T03:55:22.116Z,52.05
2022-09-12T04:00:25.202Z,51.49
2022-09-12T04:05:27.719Z,51.93
2022-09-12T04:10:30.195Z,51.58
2022-09-12T04:15:32.979Z,51.62
2022-09-12T04:20:37.351Z,51.60
2022-09-12T04:25:39.839Z,50.96
2022-09-12T04:30:42.374Z,51.71
2022-09-12T04:35:45.947Z,50.85
2022-09-12T04:40:48.447Z,50.42
2022-09-12T04:45:54.686Z,49.88
2022-09-12T04:50:57.225Z,49.73
2022-09-12T04:56:03.606Z,49.77
2022-09-12T05:01:11.828Z,49.45
2022-09-12T05:06:18.026Z,49.35
2022-09-12T05:11:26.670Z,49.51
2022-09-12T05:16:33.558Z,49.23
2022-09-12T05:21:36.155Z,49.53
2022-09-12T05:26:38.893Z,49.37
2022-09-12T05:31:42.133Z,49.33
2022-09-12T05:36:44.703Z,48.92
2022-09-12T05:41:47.853Z,48.88
2022-09-12T05:46:51.833Z,48.95
2022-09-12T05:51:54.233Z,48.77
2022-09-12T05:56:57.271Z,48.10
2022-09-12T06:01:59.908Z,47.75
2022-09-12T06:07:02.335Z,47.23
2022-09-12T06:12:05.152Z,47.32
2022-09-12T06:17:07.647Z,46.92
2022-09-12T06:22:10.489Z,46.15
2022-09-12T06:27:12.858Z,45.54
2022-09-12T06:32:15.164Z,44.56
2022-09-12T06:37:17.597Z,43.55
2022-09-12T06:42:20.604Z,43.38
2022-09-12T06:47:23.946Z,42.29
2022-09-12T06:52:26.320Z,41.11
2022-09-12T06:57:31.028Z,40.83
2022-09-12T07:02:33.441Z,40.30
2022-09-12T07:07:36.486Z,39.33
2022-09-12T07:12:39.123Z,38.78
2022-09-12T07:17:41.537Z,38.17
2022-09-12T07:22:44.125Z,37.44
2022-09-12T07:27:51.048Z,36.86
2022-09-12T07:32:56.591Z,37.08
2022-09-12T07:37:58.879Z,36.21
2022-09-12T07:43:01.263Z,35.33
2022-09-12T07:48:04.198Z,35.60
2022-09-12T07:53:06.948Z,34.96
2022-09-12T07:58:09.356Z,35.19
2022-09-12T08:03:11.935Z,35.34
2022-09-12T08:08:14.456Z,35.02
2022-09-12T08:13:18.037Z,35.00
2022-09-12T08:18:42.622Z,34.29
2022-09-12T08:23:45.603Z,34.22
2022-09-12T08:28:48.153Z,34.39
2022-09-12T08:33:51.394Z,34.42
2022-09-12T08:39:00.349Z,33.83
2022-09-12T08:44:14.106Z,33.31
2022-09-12T08:49:28.785Z,33.04
2022-09-12T08:54:35.155Z,32.72
2022-09-12T08:59:43.442Z,32.94
2022-09-12T09:04:53.504Z,33.36
2022-09-12T09:10:20.600Z,33.21
2022-09-12T09:16:00.809Z,33.32
2022-09-12T09:21:10.668Z,34.03
2022-09-12T09:26:29.301Z,34.12
2022-09-12T09:31:34.679Z,34.38
2022-09-12T09:37:08.892Z,34.35
2022-09-12T09:42:31.609Z,33.93
2022-09-12T09:47:34.065Z,33.79
2022-09-12T09:52:39.813Z,33.65
2022-09-12T09:57:45.411Z,33.77
2022-09-12T10:03:13.728Z,33.70
2022-09-12T10:08:26.926Z,33.17
2022-09-12T10:13:38.134Z,33.19
2022-09-12T10:19:01.141Z,33.35
2022-09-12T10:24:12.371Z,32.95
2022-09-12T10:29:29.010Z,32.53
2022-09-12T10:34:45.964Z,32.46
2022-09-12T10:39:55.244Z,32.21
2022-09-12T10:44:57.607Z,31.60
2022-09-12T10:50:29.076Z,31.26
2022-09-12T10:55:36.084Z,31.03
2022-09-12T11:00:45.927Z,31.43
2022-09-12T11:06:04.123Z,31.05
2022-09-12T11:11:12.280Z,30.91
2022-09-12T11:16:23.623Z,30.20
2022-09-12T11:21:49.702Z,30.04
2022-09-12T11:27:05.541Z,29.90
2022-09-12T11:32:42.056Z,29.13
2022-09-12T11:37:47.475Z,28.76
2022-09-12T11:42:54.632Z,28.94
2022-09-12T11:48:01.879Z,28.90
2022-09-12T11:53:17.427Z,28.43
2022-09-12T11:58:24.984Z,28.39
2022-09-12T12:03:40.189Z,29.06
2022-09-12T12:08:45.136Z,28.80
2022-09-12T12:13:56.575Z,28.97
2022-09-12T12:19:01.468Z,28.72
2022-09-12T12:24:10.059Z,28.87
2022-09-12T12:29:17.938Z,28.37
2022-09-12T12:34:35.709Z,28.17
2022-09-12T12:39:38.053Z,27.91
2022-09-12T12:44:47.787Z,27.81
2022-09-12T12:49:58.028Z,27.85
2022-09-12T12:55:04.696Z,27.78
2022-09-12T13:00:26.522Z,27.51
2022-09-12T13:05:31.689Z,27.74
2022-09-12T13:10:34.982Z,27.25
2022-09-12T13:15:37.348Z,27.41
2022-09-12T13:20:52.948Z,27.41
2022-09-12T13:25:58.624Z,27.31
2022-09-12T13:31:11.834Z,26.97
2022-09-12T13:36:30.679Z,27.10
2022-09-12T13:42:00.909Z,26.92
2022-09-12T13:47:05.692Z,26.40
2022-09-12T13:52:18.668Z,26.20
2022-09-12T13:57:38.947Z,25.75
2022-09-12T14:02:41.510Z,25.67
2022-09-12T14:07:55.571Z,25.52
2022-09-12T14:12:59.489Z,25.68
2022-09-12T14:18:04.056Z,24.99
2022-09-12T14:23:29.815Z,24.37
2022-09-12T14:28:35.773Z,24.58
2022-09-12T14:33:53.052Z,24.40
2022-09-12T14:39:02.648Z,23.60
2022-09-12T14:44:16.962Z,23.64
2022-09-12T14:49:49.286Z,23.44
2022-09-12T14:55:02.771Z,22.82
2022-09-12T15:00:14.583Z,22.12
2022-09-12T15:05:26.906Z,22.21
2022-09-12T15:10:39.089Z,21.88
2022-09-12T15:15:45.002Z,21.81
2022-09-12T15:20:50.634Z,21.65
2022-09-12T15:25:55.615Z,21.57
2022-09-12T15:31:05.433Z,22.14
2022-09-12T15:36:17.197Z,21.98
2022-09-12T15:41:39.071Z,22.56
2022-09-12T15:46:41.719Z,22.66
2022-09-12T15:51:44.354Z,23.08
2022-09-12T15:56:47.161Z,23.29
2022-09-12T16:01:49.778Z,23.77
2022-09-12T16:06:52.778Z,24.36
2022-09-12T16:11:55.510Z,24.84
2022-09-12T16:16:57.841Z,25.46
2022-09-12T16:22:04.619Z,26.88
2022-09-12T16:27:07.424Z,27.96
2022-09-12T16:32:09.811Z,28.79
2022-09-12T16:37:12.162Z,29.73
2022-09-12T16:42:14.463Z,29.70
2022-09-12T16:47:16.947Z,30.69
2022-09-12T16:52:22.391Z,30.33
2022-09-12T16:57:27.499Z,30.58
2022-09-12T17:02:31.991Z,30.53
2022-09-12T17:07:35.267Z,31.05
2022-09-12T17:12:37.924Z,31.17
2022-09-12T17:17:41.898Z,31.26
2022-09-12T17:22:44.588Z,31.39
2022-09-12T17:27:47.049Z,31.48
2022-09-12T17:32:53.761Z,31.96
2022-09-12T17:37:56.263Z,31.90
2022-09-12T17:43:00.329Z,31.78
2022-09-12T17:48:03.030Z,31.84
2022-09-12T17:53:09.922Z,32.02
2022-09-12T17:58:13.174Z,31.96
2022-09-12T18:03:16.202Z,32.37
2022-09-12T18:08:19.690Z,32.48
2022-09-12T18:13:22.272Z,31.98
2022-09-12T18:18:24.791Z,32.41
2022-09-12T18:23:27.852Z,32.67
2022-09-12T18:28:57.594Z,32.54
2022-09-12T18:34:01.617Z,32.50
2022-09-12T18:39:04.235Z,33.19
2022-09-12T18:44:07.621Z,32.84
2022-09-12T18:49:12.919Z,33.23
2022-09-12T18:54:15.964Z,33.61
2022-09-12T18:59:18.427Z,33.92
2022-09-12T19:04:21.037Z,34.12
2022-09-12T19:09:23.905Z,34.18
2022-09-12T19:14:27.404Z,34.35
2022-09-12T19:19:29.768Z,34.67
2022-09-12T19:24:34.823Z,34.73
2022-09-12T19:30:06.024Z,34.38
2022-09-12T19:35:36.871Z,33.90
2022-09-12T19:46:42.528Z,33.71
2022-09-12T20:05:43.040Z,33.57
2022-09-12T21:04:16.504Z,32.11
2022-09-12T21:09:19.629Z,31.71
2022-09-12T21:14:22.406Z,31.94
2022-09-12T21:19:24.988Z,31.77
2022-09-12T21:24:30.592Z,31.78
2022-09-12T21:29:33.243Z,32.07
2022-09-12T21:34:36.357Z,32.05
2022-09-12T21:39:39.423Z,32.54
2022-09-12T21:44:43.495Z,32.83
2022-09-12T21:49:46.152Z,33.08
2022-09-12T21:54:48.507Z,33.46
2022-09-12T21:59:51.098Z,34.06
2022-09-12T22:04:53.536Z,34.12
2022-09-12T22:09:58.588Z,34.13
2022-09-12T22:15:17.397Z,33.90
2022-09-12T22:20:28.235Z,33.79
2022-09-12T22:25:32.385Z,34.28
2022-09-12T22:30:37.125Z,34.00
2022-09-12T22:35:42.951Z,34.25
2022-09-12T22:40:48.843Z,34.28
2022-09-12T22:45:53.639Z,34.21
2022-09-12T22:50:57.456Z,34.15
2022-09-12T22:56:05.608Z,33.98
2022-09-12T23:01:15.968Z,33.96
2022-09-12T23:06:21.150Z,33.95
2022-09-12T23:11:25.921Z,33.27
2022-09-12T23:16:32.626Z,33.18
2022-09-12T23:21:37.156Z,33.32
2022-09-12T23:26:43.000Z,33.23
2022-09-12T23:31:45.469Z,32.86
2022-09-12T23:36:47.910Z,33.73
2022-09-12T23:41:52.000Z,34.50
2022-09-12T23:46:54.481Z,34.77
2022-09-12T23:51:57.167Z,35.78
2022-09-12T23:56:59.522Z,36.68
